Flight Track Log - Related Links

Times and Time Zones

All times are in EDT time to prevent confusion due to time zone crossing. See the ASA558 flight status page for this flight to view local times or setup timezone preferences in your user account.

Time Position Orientation Groundspeed Altitude Reporting Facility
EDT Latitude Longitude Course Direction KTS MPH feet Rate Location/Type
Wed 04:31:05 PM 47.4258 -122.3089 181° South 174 200 1,700  Level Seattle Center
Wed 04:32:18 PM 47.3575 -122.3106 181° South 239 275 3,700 1,478 Climbing Seattle Center
Wed 04:33:19 PM 47.2750 -122.3103 180° South 290 334 5,000 1,388 Climbing Seattle Center
Wed 04:34:32 PM 47.1889 -122.2850 169° South 280 322 6,800 2,328 Climbing Seattle Center
Wed 04:35:33 PM 47.1147 -122.2219 150° Southeast 285 328 10,200 2,705 Climbing Seattle Center
Wed 04:36:34 PM 47.0439 -122.1614 150° Southeast 298 343 12,300 2,361 Climbing Seattle Center
Wed 04:37:35 PM 46.9539 -122.1211 163° South 336 387 15,000 2,557 Climbing Seattle Center
Wed 04:38:36 PM 46.8583 -122.0883 167° South 351 404 17,500 2,115 Climbing Seattle Center
Wed 04:39:37 PM 46.7675 -122.0603 168° South 366 421 19,300 1,918 Climbing Seattle Center
Wed 04:40:38 PM 46.6658 -122.0256 167° South 378 435 21,400 1,967 Climbing Seattle Center
Wed 04:41:39 PM 46.5606 -121.9894 167° South 392 451 23,300 1,869 Climbing Seattle Center
Wed 04:42:40 PM 46.4308 -121.9461 167° South 404 465 25,200 1,672 Climbing Seattle Center
Wed 04:43:41 PM 46.3172 -121.9086 167° South 421 484 26,700 1,525 Climbing Seattle Center
Wed 04:44:42 PM 46.1933 -121.8694 168° South 429 494 28,300 1,426 Climbing Seattle Center
Wed 04:45:43 PM 46.0750 -121.8303 167° South 436 502 29,600 1,438 Climbing Seattle Center
Wed 04:46:43 PM 45.9567 -121.7922 167° South 438 504 31,200 1,438 Climbing Seattle Center
Wed 04:47:44 PM 45.8411 -121.7528 167° South 430 495 32,500 885 Climbing Seattle Center
Wed 04:48:45 PM 45.7250 -121.7144 167° South 430 495 33,000 164 Climbing Seattle Center
Wed 04:50:00 PM 45.5882 -121.6707 167° South  Level FlightAware Approximate
Wed 04:50:47 PM 45.4892 -121.6381 167° South 437 503 33,000  Level Seattle Center
Wed 04:51:48 PM 45.3700 -121.6014 168° South 440 506 33,000  Level Seattle Center
Wed 04:52:49 PM 45.2506 -121.5633 167° South 441 507 33,000  Level Seattle Center
Wed 04:53:50 PM 45.1319 -121.5250 167° South 440 506 33,000  Level Seattle Center
Wed 04:54:51 PM 45.0131 -121.4867 167° South 441 507 33,000  Level Seattle Center
Wed 04:55:52 PM 44.8719 -121.4425 167° South 436 502 33,000  Level Seattle Center
Wed 04:56:53 PM 44.7542 -121.4061 168° South 437 503 33,000  Level Seattle Center
Wed 04:57:54 PM 44.6361 -121.3703 168° South 436 502 33,000  Level Seattle Center
Wed 04:58:55 PM 44.5114 -121.3317 168° South 436 502 33,000  Level Seattle Center
Wed 04:59:56 PM 44.3947 -121.2961 168° South 433 498 33,000  Level Seattle Center
Wed 05:00:56 PM 44.2850 -121.2619 167° South 432 497 33,000  Level Seattle Center
Wed 05:01:57 PM 44.1692 -121.2272 168° South 429 494 33,000  Level Seattle Center
Wed 05:02:58 PM 44.0539 -121.1897 167° South 428 493 33,000  Level Seattle Center
Wed 05:03:59 PM 43.9381 -121.1547 168° South 428 493 33,000  Level Seattle Center
Wed 05:05:00 PM 43.8200 -121.1183 167° South 433 498 33,000  Level Seattle Center
Wed 05:06:01 PM 43.7033 -121.0811 167° South 433 498 33,000  Level Seattle Center
Wed 05:07:02 PM 43.5650 -121.0408 168° South 426 490 33,000  Level Seattle Center
Wed 05:08:03 PM 43.4672 -121.0183 171° South 423 487 33,000  Level Seattle Center
Wed 05:09:04 PM 43.3514 -120.9817 167° South 426 490 33,000  Level Seattle Center
Wed 05:10:05 PM 43.2364 -120.9503 169° South 426 490 33,000  Level Seattle Center
Wed 05:11:06 PM 43.1183 -120.9556 182° South 431 496 33,000  Level Seattle Center
Wed 05:12:07 PM 42.9742 -120.9778 186° South 436 502 33,000  Level Seattle Center
Wed 05:13:08 PM 42.8558 -120.9972 187° South 429 494 33,000  Level Seattle Center
Wed 05:14:09 PM 42.7378 -121.0169 187° South 425 489 33,000  Level Seattle Center
Wed 05:15:10 PM 42.6194 -121.0356 187° South 427 491 33,000  Level Seattle Center
Wed 05:16:11 PM 42.4992 -121.0650 190° South 439 505 33,000  Level Seattle Center
Wed 05:17:12 PM 42.3797 -121.1050 194° South 441 507 33,000  Level Seattle Center
Wed 05:18:13 PM 42.2575 -121.1431 193° South 448 516 33,000  Level Seattle Center
Wed 05:19:14 PM 42.1392 -121.1775 192° South 438 504 33,000  Level Seattle Center
Wed 05:20:15 PM 42.0197 -121.1736 179° South 428 493 33,000  Level Seattle Center
Wed 05:21:16 PM 41.9014 -121.1633 176° South 423 487 33,000  Level Seattle Center
Wed 05:22:17 PM 41.7931 -121.1044 158° South 415 478 33,000  Level Seattle Center
Wed 05:23:19 PM 41.6814 -121.0569 162° South 419 482 33,000  Level Seattle Center
Wed 05:24:20 PM 41.5703 -121.0061 161° South 420 483 33,000  Level Seattle Center
Wed 05:25:21 PM 41.4578 -120.9553 161° South 424 488 33,000  Level Seattle Center
Wed 05:26:22 PM 41.3581 -120.8711 148° Southeast 426 490 33,000  Level Seattle Center
Wed 05:27:23 PM 41.2669 -120.7708 140° Southeast 425 489 33,000  Level Seattle Center
Wed 05:28:24 PM 41.1772 -120.6708 140° Southeast 422 486 33,000  Level Seattle Center
Wed 05:29:25 PM 41.0692 -120.5503 140° Southeast 424 488 33,000  Level Seattle Center
Wed 05:30:26 PM 40.9769 -120.4494 140° Southeast 428 493 33,000  Level Seattle Center
Wed 05:31:27 PM 40.8622 -120.3922 159° South 438 504 33,000  Level Seattle Center
Wed 05:32:28 PM 40.7450 -120.3569 167° South 432 497 33,000  Level Seattle Center
Wed 05:33:29 PM 40.6311 -120.3186 166° South 425 489 33,000  Level Seattle Center
Wed 05:34:19 PM 40.5450 -120.2892 165° South 427 491 33,000  Level Oakland Center
Wed 05:35:20 PM 40.4019 -120.2442 167° South 438 504 33,000  Level Oakland Center
Wed 05:36:21 PM 40.2836 -120.2056 166° South 439 505 33,000  Level Oakland Center
Wed 05:37:23 PM 40.1647 -120.1681 166° South 440 506 33,000  Level Oakland Center
Wed 05:38:24 PM 40.0467 -120.1294 166° South 439 505 33,000  Level Oakland Center
Wed 05:39:26 PM 39.9289 -120.0908 166° South 438 504 33,000  Level Oakland Center
Wed 05:40:27 PM 39.8094 -120.0525 166° South 441 507 33,000  Level Oakland Center
Wed 05:41:29 PM 39.6925 -120.0153 166° South 436 502 33,000  Level Oakland Center
Wed 05:42:30 PM 39.5761 -119.9786 166° South 434 499 33,000  Level Oakland Center
Wed 05:43:31 PM 39.4336 -119.9331 166° South 438 504 33,000  Level Oakland Center
Wed 05:44:33 PM 39.3164 -119.8964 166° South 436 502 33,000  Level Oakland Center
Wed 05:45:34 PM 39.1969 -119.8589 166° South 441 507 33,000  Level Oakland Center
Wed 05:46:36 PM 39.0786 -119.8217 166° South 440 506 33,000  Level Oakland Center
Wed 05:47:37 PM 38.9603 -119.7847 166° South 440 506 33,000  Level Oakland Center
Wed 05:48:38 PM 38.8400 -119.7472 166° South 444 511 33,000  Level Oakland Center
Wed 05:49:40 PM 38.7175 -119.7094 166° South 450 518 33,000  Level Oakland Center
Wed 05:50:41 PM 38.5953 -119.6706 166° South 452 520 33,000  Level Oakland Center
Wed 05:51:43 PM 38.4483 -119.6253 166° South 453 521 33,000  Level Oakland Center
Wed 05:52:44 PM 38.3369 -119.5914 167° South 452 520 33,000  Level Oakland Center
Wed 05:53:46 PM 38.2156 -119.5550 167° South 446 513 33,000  Level Oakland Center
Wed 05:54:47 PM 38.0964 -119.5169 166° South 444 511 33,000  Level Oakland Center
Wed 05:55:49 PM 37.9764 -119.4800 166° South 440 506 33,000  Level Oakland Center
Wed 05:56:50 PM 37.8514 -119.4447 167° South 452 520 33,000  Level Oakland Center
Wed 05:57:52 PM 37.7069 -119.4006 166° South 444 511 33,000  Level Oakland Center
Wed 05:58:53 PM 37.5953 -119.3686 167° South 445 512 33,000  Level Oakland Center
Wed 05:59:55 PM 37.4742 -119.3339 167° South 446 513 33,000  Level Oakland Center
Wed 06:00:56 PM 37.3542 -119.2964 166° South 445 512 33,000  Level Oakland Center
Wed 06:01:58 PM 37.2344 -119.2614 167° South 443 510 33,000  Level Oakland Center
Wed 06:02:59 PM 37.0894 -119.2181 167° South 445 512 33,000  Level Oakland Center
Wed 06:04:01 PM 36.9686 -119.1808 166° South 447 514 33,000  Level Oakland Center
Wed 06:05:02 PM 36.8467 -119.1439 166° South 450 518 33,000  Level Oakland Center
Wed 06:06:04 PM 36.7247 -119.1078 167° South 450 518 33,000  Level Oakland Center
Wed 06:07:05 PM 36.6031 -119.0722 167° South 449 517 33,000  Level Oakland Center
Wed 06:08:07 PM 36.4808 -119.0356 166° South 450 518 33,000  Level Oakland Center
Wed 06:09:08 PM 36.3586 -119.0000 167° South 450 518 33,000  Level Oakland Center
Wed 06:10:10 PM 36.2358 -118.9667 168° South 451 519 33,000  Level Oakland Center
Wed 06:11:12 PM 36.1169 -118.9336 167° South 440 506 33,000  Level Oakland Center
Wed 06:12:13 PM 35.9681 -118.8894 166° South 453 521 33,000  Level Oakland Center
Wed 06:13:14 PM 35.8461 -118.8539 167° South 450 518 33,000  Level Oakland Center
Wed 06:14:16 PM 35.7219 -118.8181 167° South 456 525 33,000 -98 Level Oakland Center
Wed 06:15:17 PM 35.5986 -118.7822 167° South 455 524 32,800 -390 Descending Oakland Center
Wed 06:16:19 PM 35.4719 -118.7472 167° South 460 529 32,200 -384 Descending Los Angeles Center
Wed 06:17:22 PM 35.3492 -118.7114 167° South 456 525 32,000 -96 Descending Los Angeles Center
Wed 06:18:24 PM 35.2272 -118.6772 167° South 450 518 32,000 -145 Level Los Angeles Center
Wed 06:19:26 PM 35.0783 -118.6361 167° South 454 522 31,700 -1,016 Descending Los Angeles Center
Wed 06:20:28 PM 34.9692 -118.5581 150° Southeast 464 534 29,900 -2,032 Descending Los Angeles Center
Wed 06:21:30 PM 34.8903 -118.4369 128° Southeast 457 526 27,500 -2,226 Descending Los Angeles Center
Wed 06:22:32 PM 34.8111 -118.3239 130° Southeast 448 516 25,300 -2,081 Descending Los Angeles Center
Wed 06:23:34 PM 34.7364 -118.2167 130° Southeast 429 494 23,200 -1,872 Descending Los Angeles Center
Wed 06:24:37 PM 34.6642 -118.1133 130° Southeast 410 472 21,400 -1,056 Descending Los Angeles Center
Wed 06:25:39 PM 34.5919 -117.9811 124° Southeast 395 455 21,000 -194 Descending Los Angeles Center
Wed 06:26:41 PM 34.5394 -117.8647 119° Southeast 397 457 21,000 -339 Level Los Angeles Center
Wed 06:27:43 PM 34.4850 -117.7467 119° Southeast 402 463 20,300 -823 Descending Los Angeles Center
Wed 06:28:45 PM 34.4308 -117.6300 119° Southeast 401 461 19,300 -1,016 Descending Los Angeles Center
Wed 06:29:47 PM 34.3756 -117.5056 118° Southeast 381 438 18,200 -968 Descending Los Angeles Center
Wed 06:30:49 PM 34.3236 -117.3958 120° Southeast 376 433 17,300 -581 Descending Los Angeles Center
Wed 06:31:51 PM 34.2736 -117.2864 119° Southeast 372 428 17,000 -242 Descending Los Angeles Center
Wed 06:32:53 PM 34.2183 -117.1714 120° Southeast 367 422 16,800 -1,065 Descending Los Angeles Center
Wed 06:33:55 PM 34.1692 -117.0644 119° Southeast 365 420 14,800 -1,403 Descending Los Angeles Center
Wed 06:34:57 PM 34.1169 -116.9511 119° Southeast 357 411 13,900 -571 Descending Los Angeles Center
Wed 06:35:19 PM 34.1000 -116.9000 112° Southeast 350 403 14,000  Climbing Southern California TRACON
Wed 06:35:59 PM 34.0689 -116.8489 126° Southeast 353 406 13,900 -291 Descending Los Angeles Center
Wed 06:37:02 PM 34.0200 -116.7461 120° Southeast 352 405 13,500 -1,152 Descending Los Angeles Center
Wed 06:38:04 PM 33.9725 -116.6431 119° Southeast 350 403 11,500 -1,452 Descending Los Angeles Center
Wed 06:39:06 PM 33.9206 -116.5328 120° Southeast 323 372 10,500 -1,161 Descending Los Angeles Center
Wed 06:40:08 PM 33.8781 -116.4467 121° Southeast 294 338 9,100 -1,490 Descending Los Angeles Center
Wed 06:41:35 PM 33.8300 -116.3467 120° Southeast 258 297 6,800 -1,043 Descending Los Angeles Center
Wed 06:42:49 PM 33.7922 -116.2856 127° Southeast 237 273 6,300 -1,479 Descending Los Angeles Center
Wed 06:45:14 PM 33.7833 -116.4500 266° West 168 193 1,400 -1,621 Descending Southern California TRACON
Wed 06:46:20 PM 33.8167 -116.5000 309° West 150 173 600 -727 Descending Southern California TRACON
Wed 06:48:00 PM 33.8297 -116.5067 282° West  Level Estimated
Wed 06:55:00 PM 33.8297 -116.5067 282° West  Level Estimated

Login

Don't have an account? Register now (free) for customized features, flight alerts, and more!